createdAt,value
2022-09-15T00:00:01.572Z,60.51
2022-09-15T00:01:01.573Z,59.93
2022-09-15T00:02:01.678Z,61.48
2022-09-15T00:03:02.707Z,61.69
2022-09-15T00:04:01.546Z,61.02
2022-09-15T00:05:01.560Z,58.46
2022-09-15T00:06:01.587Z,58.98
2022-09-15T00:07:01.521Z,62.40
2022-09-15T00:08:01.520Z,60.88
2022-09-15T00:09:01.520Z,60.88
2022-09-15T00:10:01.484Z,60.03
2022-09-15T00:11:01.482Z,57.86
2022-09-15T00:12:01.479Z,58.01
2022-09-15T00:13:01.456Z,58.40
2022-09-15T00:14:01.452Z,55.55
2022-09-15T00:15:01.470Z,59.60
2022-09-15T00:16:01.429Z,57.29
2022-09-15T00:17:01.492Z,60.60
2022-09-15T00:18:01.425Z,59.08
2022-09-15T00:19:01.403Z,60.99
2022-09-15T00:20:01.405Z,57.29
2022-09-15T00:21:01.418Z,58.21
2022-09-15T00:22:01.384Z,60.93
2022-09-15T00:23:01.373Z,61.30
2022-09-15T00:24:01.380Z,61.62
2022-09-15T00:25:01.386Z,58.75
2022-09-15T00:26:01.379Z,59.15
2022-09-15T00:27:01.345Z,57.67
2022-09-15T00:28:01.357Z,60.53
2022-09-15T00:29:01.316Z,61.17
2022-09-15T00:30:01.317Z,58.75
2022-09-15T00:31:01.402Z,61.39
2022-09-15T00:32:01.291Z,61.94
2022-09-15T00:33:01.293Z,57.13
2022-09-15T00:34:01.283Z,60.38
2022-09-15T00:35:01.285Z,59.78
2022-09-15T00:36:01.268Z,58.99
2022-09-15T00:37:01.276Z,65.53
2022-09-15T00:38:01.375Z,61.31
2022-09-15T00:39:01.227Z,61.30
2022-09-15T00:40:01.301Z,60.18
2022-09-15T00:41:01.209Z,60.14
2022-09-15T00:42:01.202Z,61.39
2022-09-15T00:43:01.244Z,58.32
2022-09-15T00:44:01.197Z,64.27
2022-09-15T00:45:01.175Z,63.71
2022-09-15T00:46:01.332Z,61.10
2022-09-15T00:47:18.273Z,58.92
2022-09-15T00:48:02.154Z,58.71
2022-09-15T00:49:01.159Z,61.11
2022-09-15T00:50:01.138Z,59.77
2022-09-15T00:51:01.202Z,57.52
2022-09-15T00:52:01.117Z,58.98
2022-09-15T00:53:01.121Z,58.21
2022-09-15T00:54:01.096Z,55.88
2022-09-15T00:55:01.096Z,59.33
2022-09-15T00:56:01.076Z,61.24
2022-09-15T00:57:01.069Z,60.94
2022-09-15T00:58:01.054Z,61.63
2022-09-15T00:59:01.076Z,63.09
2022-09-15T01:00:01.056Z,63.05
2022-09-15T01:01:01.108Z,60.23
2022-09-15T01:02:01.083Z,60.59
2022-09-15T01:03:01.034Z,58.97
2022-09-15T01:04:01.027Z,58.75
2022-09-15T01:05:01.003Z,65.07
2022-09-15T01:06:01.007Z,58.53
2022-09-15T01:07:01.016Z,63.66
2022-09-15T01:08:00.986Z,62.18
2022-09-15T01:09:00.968Z,60.42
2022-09-15T01:10:00.964Z,60.95
2022-09-15T01:11:00.944Z,63.84
2022-09-15T01:12:00.966Z,58.08
2022-09-15T01:13:01.270Z,60.99
2022-09-15T01:14:00.923Z,62.83
2022-09-15T01:15:00.910Z,61.23
2022-09-15T01:16:00.931Z,61.55
2022-09-15T01:17:00.948Z,60.01
2022-09-15T01:18:00.893Z,59.26
2022-09-15T01:19:00.895Z,61.49
2022-09-15T01:20:00.873Z,59.89
2022-09-15T01:21:00.867Z,60.39
2022-09-15T01:22:00.867Z,58.85
2022-09-15T01:23:00.888Z,61.37
2022-09-15T01:24:00.836Z,56.66
2022-09-15T01:25:00.826Z,58.23
2022-09-15T01:26:00.830Z,63.28
2022-09-15T01:27:09.668Z,62.38
2022-09-15T01:28:01.826Z,59.61
2022-09-15T01:29:00.799Z,55.80
2022-09-15T01:30:00.775Z,59.38
2022-09-15T01:31:00.764Z,59.12
2022-09-15T01:32:00.899Z,59.22
2022-09-15T01:33:00.751Z,61.87
2022-09-15T01:34:00.782Z,61.77
2022-09-15T01:35:00.769Z,62.68
2022-09-15T01:36:00.734Z,59.43
2022-09-15T01:37:00.715Z,58.17
2022-09-15T01:38:00.719Z,60.69
2022-09-15T01:39:00.685Z,63.97
2022-09-15T01:40:00.769Z,62.12
2022-09-15T01:41:00.694Z,60.21
2022-09-15T01:42:00.686Z,58.91
2022-09-15T01:43:00.660Z,63.93
2022-09-15T01:44:00.664Z,59.67
2022-09-15T01:45:00.648Z,61.45
2022-09-15T01:46:00.669Z,61.56
2022-09-15T01:47:00.639Z,60.62
2022-09-15T01:48:00.674Z,60.32
2022-09-15T01:49:00.601Z,65.04
2022-09-15T01:50:00.597Z,62.51
2022-09-15T01:51:00.599Z,58.61
2022-09-15T01:52:00.598Z,62.05
2022-09-15T01:53:00.563Z,61.46
2022-09-15T01:54:00.558Z,61.46
2022-09-15T01:55:00.547Z,62.16
2022-09-15T01:56:00.550Z,62.05
2022-09-15T01:57:00.531Z,60.66
2022-09-15T01:58:00.560Z,60.61
2022-09-15T01:59:00.512Z,66.91
2022-09-15T02:00:00.505Z,61.54
2022-09-15T02:01:00.555Z,64.27
2022-09-15T02:02:00.529Z,59.21
2022-09-15T02:03:00.478Z,61.36
2022-09-15T02:04:00.499Z,59.75
2022-09-15T02:05:00.463Z,65.73
2022-09-15T02:06:00.453Z,62.74
2022-09-15T02:07:00.451Z,59.77
2022-09-15T02:08:00.456Z,61.78
2022-09-15T02:09:00.456Z,61.63
2022-09-15T02:10:00.423Z,60.64
2022-09-15T02:11:00.407Z,65.36
2022-09-15T02:12:00.408Z,63.76
2022-09-15T02:13:00.394Z,61.61
2022-09-15T02:14:00.397Z,60.12
2022-09-15T02:15:00.405Z,59.04
2022-09-15T02:16:00.448Z,64.65
2022-09-15T02:17:00.360Z,61.91
2022-09-15T02:18:00.348Z,61.96
2022-09-15T02:19:00.386Z,59.60
2022-09-15T02:20:00.366Z,61.19
2022-09-15T02:21:00.328Z,60.32
2022-09-15T02:22:00.309Z,60.98
2022-09-15T02:23:00.327Z,59.57
2022-09-15T02:24:00.296Z,60.07
2022-09-15T02:25:00.388Z,61.24
2022-09-15T02:26:00.293Z,62.45
2022-09-15T02:27:00.277Z,63.24
2022-09-15T02:28:00.271Z,64.55
2022-09-15T02:29:00.299Z,63.41
2022-09-15T02:30:00.252Z,62.08
2022-09-15T02:31:00.235Z,63.26
2022-09-15T02:32:04.943Z,60.66
2022-09-15T02:33:01.228Z,64.43
2022-09-15T02:34:00.220Z,61.62
2022-09-15T02:35:00.255Z,64.44
2022-09-15T02:36:00.209Z,62.20
2022-09-15T02:37:00.186Z,63.91
2022-09-15T02:38:00.197Z,58.82
2022-09-15T02:39:00.165Z,63.81
2022-09-15T02:40:00.407Z,61.01
2022-09-15T02:41:00.183Z,60.34
2022-09-15T02:42:00.187Z,63.22
2022-09-15T02:43:00.151Z,64.55
2022-09-15T02:44:00.121Z,64.68
2022-09-15T02:45:00.128Z,64.26
2022-09-15T02:46:00.252Z,61.36
2022-09-15T02:47:00.106Z,60.97
2022-09-15T02:48:00.115Z,65.03
2022-09-15T02:49:00.097Z,60.26
2022-09-15T02:50:00.079Z,59.87
2022-09-15T02:51:00.087Z,63.15
2022-09-15T02:52:00.086Z,62.79
2022-09-15T02:53:00.062Z,63.39
2022-09-15T02:54:00.071Z,64.35
2022-09-15T02:55:00.033Z,64.60
2022-09-15T02:56:00.039Z,61.78
2022-09-15T02:57:00.018Z,64.84
2022-09-15T02:58:00.044Z,64.27
2022-09-15T02:58:59.996Z,61.52
2022-09-15T03:00:00.007Z,64.90
2022-09-15T03:01:00.029Z,64.23
2022-09-15T03:02:00.033Z,61.27
2022-09-15T03:03:00.018Z,65.16
2022-09-15T03:03:59.958Z,64.32
2022-09-15T03:04:59.959Z,62.86
2022-09-15T03:05:59.946Z,60.72
2022-09-15T03:06:59.938Z,63.66
2022-09-15T03:07:59.918Z,61.47
2022-09-15T03:08:59.956Z,65.13
2022-09-15T03:09:59.915Z,64.25
2022-09-15T03:10:59.977Z,64.00
2022-09-15T03:11:59.902Z,63.94
2022-09-15T03:12:59.893Z,64.27
2022-09-15T03:13:59.885Z,65.11
2022-09-15T03:14:59.881Z,64.39
2022-09-15T03:15:59.906Z,66.74
2022-09-15T03:16:59.874Z,63.67
2022-09-15T03:18:00.393Z,66.43
2022-09-15T03:18:59.841Z,65.59
2022-09-15T03:19:59.826Z,64.16
2022-09-15T03:20:59.836Z,64.42
2022-09-15T03:21:59.804Z,65.75
2022-09-15T03:22:59.809Z,65.00
2022-09-15T03:23:59.781Z,65.08
2022-09-15T03:24:59.766Z,65.40
2022-09-15T03:25:59.756Z,64.61
2022-09-15T03:26:59.759Z,62.34
2022-09-15T03:27:59.741Z,60.02
2022-09-15T03:28:59.759Z,59.98
2022-09-15T03:29:59.717Z,65.51
2022-09-15T03:30:59.737Z,63.61
2022-09-15T03:31:59.816Z,64.18
2022-09-15T03:32:59.710Z,63.71
2022-09-15T03:33:59.705Z,66.84
2022-09-15T03:34:59.681Z,63.25
2022-09-15T03:35:59.687Z,65.74
2022-09-15T03:36:59.673Z,64.25
2022-09-15T03:37:59.693Z,65.10
2022-09-15T03:38:59.655Z,65.04
2022-09-15T03:39:59.728Z,62.86
2022-09-15T03:40:59.664Z,59.83
2022-09-15T03:41:59.641Z,66.74
2022-09-15T03:42:59.626Z,64.61
2022-09-15T03:43:59.650Z,63.52
2022-09-15T03:44:59.614Z,64.27
2022-09-15T03:45:59.647Z,66.40
2022-09-15T03:46:59.587Z,60.42
2022-09-15T03:47:59.581Z,64.98
2022-09-15T03:48:59.570Z,66.15
2022-09-15T03:49:59.580Z,64.62
2022-09-15T03:50:59.564Z,66.35
2022-09-15T03:51:59.571Z,65.82
2022-09-15T03:52:59.549Z,64.97
2022-09-15T03:53:59.528Z,63.33
2022-09-15T03:54:59.535Z,65.08
2022-09-15T03:55:59.520Z,66.02
2022-09-15T03:56:59.511Z,64.33
2022-09-15T03:57:59.551Z,67.25
2022-09-15T03:58:59.501Z,64.48
2022-09-15T03:59:59.493Z,63.63
2022-09-15T04:00:59.519Z,63.21
2022-09-15T04:01:59.502Z,64.74
2022-09-15T04:02:59.462Z,66.12
2022-09-15T04:03:59.459Z,66.50
2022-09-15T04:04:59.460Z,64.96
2022-09-15T04:05:59.487Z,63.77
2022-09-15T04:06:59.434Z,66.23
2022-09-15T04:07:59.410Z,66.07
2022-09-15T04:08:59.416Z,64.97
2022-09-15T04:09:59.399Z,66.07
2022-09-15T04:10:59.400Z,64.19
2022-09-15T04:11:59.415Z,68.23
2022-09-15T04:12:59.380Z,62.00
2022-09-15T04:14:06.899Z,66.63
2022-09-15T04:14:59.477Z,65.73
2022-09-15T04:15:59.413Z,66.48
2022-09-15T04:16:59.358Z,66.56
2022-09-15T04:17:59.339Z,65.63
2022-09-15T04:18:59.340Z,65.97
2022-09-15T04:19:59.363Z,66.31
2022-09-15T04:20:59.351Z,61.62
2022-09-15T04:21:59.355Z,64.62
2022-09-15T04:22:59.379Z,64.79
2022-09-15T04:23:59.324Z,66.90
2022-09-15T04:24:59.347Z,63.88
2022-09-15T04:26:00.178Z,60.94
2022-09-15T04:26:59.258Z,61.75
2022-09-15T04:27:59.247Z,64.56
2022-09-15T04:29:03.714Z,66.44
2022-09-15T04:30:00.314Z,64.79
2022-09-15T04:30:59.274Z,64.83
2022-09-15T04:31:59.226Z,62.74
2022-09-15T04:32:59.215Z,66.66
2022-09-15T04:33:59.218Z,65.08
2022-09-15T04:34:59.178Z,65.87
2022-09-15T04:35:59.196Z,64.98
2022-09-15T04:36:59.745Z,66.25
2022-09-15T04:37:59.158Z,66.11
2022-09-15T04:38:59.172Z,61.97
2022-09-15T04:39:59.229Z,64.97
2022-09-15T04:40:59.142Z,66.81
2022-09-15T04:41:59.127Z,64.66
2022-09-15T04:42:59.127Z,68.15
2022-09-15T04:43:59.132Z,65.83
2022-09-15T04:44:59.133Z,65.21
2022-09-15T04:45:59.086Z,65.36
2022-09-15T04:46:59.179Z,65.50
2022-09-15T04:47:59.073Z,63.49
2022-09-15T04:48:59.069Z,64.60
2022-09-15T04:49:59.054Z,65.12
2022-09-15T04:50:59.287Z,65.98
2022-09-15T04:51:59.064Z,66.57
2022-09-15T04:52:59.027Z,66.78
2022-09-15T04:53:59.044Z,64.72
2022-09-15T04:54:59.019Z,62.03
2022-09-15T04:55:59.001Z,63.93
2022-09-15T04:56:59.019Z,62.33
2022-09-15T04:57:59.508Z,65.27
2022-09-15T04:59:03.481Z,64.25
2022-09-15T04:59:59.966Z,62.09
2022-09-15T05:00:58.991Z,64.42
2022-09-15T05:01:59.014Z,66.49
2022-09-15T05:02:58.943Z,68.01
2022-09-15T05:03:58.921Z,65.40
2022-09-15T05:04:58.965Z,66.82
2022-09-15T05:05:58.918Z,64.78
2022-09-15T05:06:58.958Z,66.33
2022-09-15T05:07:58.891Z,63.36
2022-09-15T05:08:58.900Z,64.05
2022-09-15T05:09:58.873Z,61.01
2022-09-15T05:10:58.908Z,64.41
2022-09-15T05:11:58.858Z,65.91
2022-09-15T05:12:58.849Z,66.90
2022-09-15T05:13:58.860Z,64.97
2022-09-15T05:14:58.922Z,64.18
2022-09-15T05:15:59.840Z,65.78
2022-09-15T05:16:59.097Z,64.38
2022-09-15T05:17:59.923Z,62.33
2022-09-15T05:18:58.797Z,64.82
2022-09-15T05:19:58.787Z,62.60
2022-09-15T05:20:59.044Z,62.95
2022-09-15T05:21:58.761Z,67.01
2022-09-15T05:22:58.789Z,66.52
2022-09-15T05:23:58.761Z,65.44
2022-09-15T05:24:58.743Z,66.20
2022-09-15T05:25:58.739Z,66.29
2022-09-15T05:26:58.749Z,67.02
2022-09-15T05:27:58.740Z,67.12
2022-09-15T05:28:58.765Z,65.59
2022-09-15T05:30:23.520Z,62.90
2022-09-15T05:30:59.791Z,65.73
2022-09-15T05:31:58.840Z,67.16
2022-09-15T05:32:58.731Z,66.03
2022-09-15T05:33:58.659Z,66.22
2022-09-15T05:34:58.654Z,64.37
2022-09-15T05:35:58.646Z,64.50
2022-09-15T05:36:58.645Z,61.17
2022-09-15T05:37:58.635Z,66.10
2022-09-15T05:38:58.967Z,65.96
2022-09-15T05:39:58.791Z,64.49
2022-09-15T05:40:58.615Z,64.87
2022-09-15T05:41:58.593Z,64.24
2022-09-15T05:42:58.592Z,65.05
2022-09-15T05:43:58.613Z,65.10
2022-09-15T05:44:58.585Z,66.33
2022-09-15T05:45:58.563Z,65.60
2022-09-15T05:46:58.596Z,65.44
2022-09-15T05:47:58.552Z,68.05
2022-09-15T05:48:58.547Z,65.63
2022-09-15T05:49:58.578Z,66.27
2022-09-15T05:50:58.540Z,64.61
2022-09-15T05:51:58.505Z,66.46
2022-09-15T05:52:58.508Z,64.84
2022-09-15T05:53:58.514Z,66.02
2022-09-15T05:54:59.426Z,63.60
2022-09-15T05:55:59.469Z,64.45
2022-09-15T05:56:58.489Z,64.40
2022-09-15T05:57:58.461Z,67.15
2022-09-15T05:58:58.472Z,65.34
2022-09-15T05:59:58.438Z,64.40
2022-09-15T06:00:58.443Z,68.14
2022-09-15T06:01:58.465Z,64.71
2022-09-15T06:02:58.445Z,62.35
2022-09-15T06:03:58.415Z,63.85
2022-09-15T06:04:58.419Z,63.56
2022-09-15T06:05:58.395Z,65.79
2022-09-15T06:06:58.377Z,66.54
2022-09-15T06:07:58.376Z,64.16
2022-09-15T06:08:59.461Z,63.91
2022-09-15T06:09:58.389Z,63.32
2022-09-15T06:10:58.347Z,62.33
2022-09-15T06:11:58.330Z,64.48
2022-09-15T06:12:58.329Z,65.27
2022-09-15T06:13:58.317Z,64.56
2022-09-15T06:14:59.299Z,64.67
2022-09-15T06:15:58.384Z,63.21
2022-09-15T06:16:58.607Z,66.16
2022-09-15T06:17:58.287Z,63.67
2022-09-15T06:18:58.337Z,64.64
2022-09-15T06:19:58.291Z,64.47
2022-09-15T06:20:58.409Z,66.00
2022-09-15T06:21:58.250Z,66.31
2022-09-15T06:22:58.247Z,64.07
2022-09-15T06:23:58.224Z,64.88
2022-09-15T06:24:58.242Z,66.65
2022-09-15T06:25:58.226Z,66.00
2022-09-15T06:26:58.232Z,62.89
2022-09-15T06:27:58.193Z,63.72
2022-09-15T06:28:58.181Z,63.62
2022-09-15T06:29:58.220Z,67.71
2022-09-15T06:30:58.428Z,65.32
2022-09-15T06:31:58.290Z,64.36
2022-09-15T06:32:58.209Z,67.02
2022-09-15T06:33:58.144Z,65.18
2022-09-15T06:34:58.141Z,67.29
2022-09-15T06:35:58.212Z,65.71
2022-09-15T06:36:58.129Z,64.30
2022-09-15T06:37:58.169Z,66.00
2022-09-15T06:38:58.108Z,66.30
2022-09-15T06:39:58.189Z,63.85
2022-09-15T06:40:58.179Z,62.94
2022-09-15T06:42:02.756Z,64.36
2022-09-15T06:42:59.117Z,66.37
2022-09-15T06:43:58.080Z,64.74
2022-09-15T06:44:58.057Z,66.88
2022-09-15T06:45:58.234Z,63.48
2022-09-15T06:46:58.026Z,64.32
2022-09-15T06:48:20.166Z,64.92
2022-09-15T06:48:59.037Z,61.10
2022-09-15T06:49:58.010Z,59.97
2022-09-15T06:50:58.006Z,63.21
2022-09-15T06:51:57.989Z,59.73
2022-09-15T06:52:57.993Z,61.51
2022-09-15T06:53:57.978Z,60.41
2022-09-15T06:54:57.992Z,64.82
2022-09-15T06:55:57.970Z,64.55
2022-09-15T06:56:57.940Z,67.07
2022-09-15T06:57:57.960Z,65.66
2022-09-15T06:58:57.921Z,67.23
2022-09-15T06:59:57.955Z,65.74
2022-09-15T07:00:57.916Z,62.01
2022-09-15T07:02:00.329Z,65.67
2022-09-15T07:02:59.040Z,67.01
2022-09-15T07:03:57.914Z,66.36
2022-09-15T07:04:57.885Z,64.23
2022-09-15T07:05:57.880Z,65.08
2022-09-15T07:06:57.865Z,62.78
2022-09-15T07:07:57.868Z,62.53
2022-09-15T07:08:57.896Z,63.69
2022-09-15T07:09:57.882Z,63.67
2022-09-15T07:10:57.836Z,64.14
2022-09-15T07:11:57.910Z,64.43
2022-09-15T07:12:57.801Z,65.06
2022-09-15T07:13:57.885Z,66.16
2022-09-15T07:14:57.822Z,64.11
2022-09-15T07:15:57.825Z,64.66
2022-09-15T07:16:57.789Z,66.10
2022-09-15T07:17:57.773Z,65.29
2022-09-15T07:18:57.759Z,63.95
2022-09-15T07:19:57.781Z,63.20
2022-09-15T07:20:57.738Z,65.69
2022-09-15T07:21:57.744Z,64.73
2022-09-15T07:22:57.780Z,64.65
2022-09-15T07:23:57.772Z,62.19
2022-09-15T07:24:57.876Z,62.30
2022-09-15T07:25:57.740Z,64.34
2022-09-15T07:26:57.694Z,63.31
2022-09-15T07:27:57.706Z,60.54
2022-09-15T07:28:57.665Z,62.56
2022-09-15T07:29:57.671Z,62.43
2022-09-15T07:30:57.649Z,63.87
2022-09-15T07:31:57.757Z,64.74
2022-09-15T07:32:57.630Z,65.06
2022-09-15T07:33:57.631Z,66.32
2022-09-15T07:34:58.514Z,62.83
2022-09-15T07:35:57.614Z,61.62
2022-09-15T07:36:57.645Z,65.79
2022-09-15T07:37:57.652Z,64.72
2022-09-15T07:38:57.589Z,64.27
2022-09-15T07:39:57.637Z,63.70
2022-09-15T07:40:57.612Z,66.11
2022-09-15T07:41:57.569Z,64.19
2022-09-15T07:42:57.575Z,64.79
2022-09-15T07:43:57.565Z,64.36
2022-09-15T07:44:57.700Z,62.16
2022-09-15T07:45:57.637Z,63.65
2022-09-15T07:46:57.603Z,63.39
2022-09-15T07:47:57.553Z,64.15
2022-09-15T07:48:57.670Z,63.91
2022-09-15T07:49:57.542Z,65.62
2022-09-15T07:50:57.521Z,63.50
2022-09-15T07:51:57.517Z,62.15
2022-09-15T07:52:57.491Z,63.59
2022-09-15T07:53:57.526Z,64.12
2022-09-15T07:54:57.451Z,64.72
2022-09-15T07:55:57.468Z,63.87
2022-09-15T07:56:57.499Z,62.96
2022-09-15T07:57:57.446Z,63.97
2022-09-15T07:58:57.456Z,64.71
2022-09-15T07:59:57.426Z,62.20
2022-09-15T08:00:57.477Z,64.60
2022-09-15T08:01:57.492Z,63.39
2022-09-15T08:02:57.403Z,63.29
2022-09-15T08:03:57.440Z,62.81
2022-09-15T08:04:57.382Z,63.79
2022-09-15T08:05:57.375Z,62.91
2022-09-15T08:06:57.361Z,63.54
2022-09-15T08:07:57.362Z,64.26
2022-09-15T08:09:00.790Z,63.68
2022-09-15T08:09:57.339Z,64.90
2022-09-15T08:10:57.341Z,64.14
2022-09-15T08:11:57.323Z,65.57
2022-09-15T08:12:57.317Z,61.65
2022-09-15T08:13:57.323Z,63.46
2022-09-15T08:14:57.348Z,61.19
2022-09-15T08:15:57.372Z,63.58
2022-09-15T08:16:57.292Z,64.98
2022-09-15T08:17:57.292Z,63.44
2022-09-15T08:18:57.263Z,63.15
2022-09-15T08:19:57.297Z,64.40
2022-09-15T08:20:57.257Z,63.91
2022-09-15T08:21:57.243Z,61.58
2022-09-15T08:22:57.227Z,63.73
2022-09-15T08:23:57.227Z,63.04
2022-09-15T08:24:57.212Z,63.54
2022-09-15T08:25:57.227Z,65.32
2022-09-15T08:26:57.222Z,65.14
2022-09-15T08:27:57.190Z,61.71
2022-09-15T08:28:57.215Z,62.84
2022-09-15T08:29:57.180Z,64.46
2022-09-15T08:30:57.256Z,59.88
2022-09-15T08:31:57.169Z,58.86
2022-09-15T08:32:57.144Z,66.34
2022-09-15T08:33:57.207Z,64.91
2022-09-15T08:34:57.168Z,64.58
2022-09-15T08:35:57.524Z,65.51
2022-09-15T08:36:57.146Z,64.39
2022-09-15T08:37:57.268Z,64.82
2022-09-15T08:38:57.170Z,64.77
2022-09-15T08:39:57.198Z,63.98
2022-09-15T08:40:57.098Z,61.19
2022-09-15T08:41:57.099Z,63.17
2022-09-15T08:42:57.071Z,63.20
2022-09-15T08:43:57.085Z,62.91
2022-09-15T08:44:57.068Z,64.36
2022-09-15T08:45:57.043Z,63.22
2022-09-15T08:46:57.124Z,61.19
2022-09-15T08:47:57.031Z,62.57
2022-09-15T08:49:02.078Z,61.49
2022-09-15T08:49:58.260Z,63.81
2022-09-15T08:50:57.006Z,63.34
2022-09-15T08:51:57.022Z,62.26
2022-09-15T08:52:56.993Z,61.35
2022-09-15T08:53:56.989Z,63.20
2022-09-15T08:54:56.999Z,64.11
2022-09-15T08:55:57.335Z,61.19
2022-09-15T08:56:56.946Z,59.90
2022-09-15T08:57:56.959Z,61.63
2022-09-15T08:58:56.933Z,60.87
2022-09-15T08:59:57.032Z,64.36
2022-09-15T09:00:56.982Z,62.80
2022-09-15T09:01:57.036Z,63.75
2022-09-15T09:02:56.973Z,65.81
2022-09-15T09:03:56.898Z,62.91
2022-09-15T09:04:56.892Z,63.81
2022-09-15T09:05:56.922Z,63.31
2022-09-15T09:06:56.985Z,62.54
2022-09-15T09:07:57.864Z,64.06
2022-09-15T09:08:56.856Z,65.35
2022-09-15T09:09:56.848Z,60.94
2022-09-15T09:10:56.844Z,62.51
2022-09-15T09:11:56.843Z,61.45
2022-09-15T09:12:56.853Z,64.28
2022-09-15T09:13:56.830Z,63.85
2022-09-15T09:14:56.817Z,60.67
2022-09-15T09:15:56.861Z,62.51
2022-09-15T09:16:56.822Z,65.25
2022-09-15T09:17:56.874Z,64.05
2022-09-15T09:18:56.776Z,63.62
2022-09-15T09:19:56.785Z,60.28
2022-09-15T09:20:56.929Z,58.58
2022-09-15T09:21:56.758Z,60.54
2022-09-15T09:22:56.766Z,58.86
2022-09-15T09:23:56.738Z,56.70
2022-09-15T09:24:56.749Z,59.23
2022-09-15T09:25:56.715Z,58.05
2022-09-15T09:26:56.742Z,58.04
2022-09-15T09:27:56.711Z,58.41
2022-09-15T09:28:56.720Z,59.66
2022-09-15T09:29:56.686Z,58.24
2022-09-15T09:30:56.736Z,57.77
2022-09-15T09:31:56.689Z,58.62
2022-09-15T09:32:56.700Z,58.67
2022-09-15T09:33:56.879Z,57.28
2022-09-15T09:34:56.634Z,57.32
2022-09-15T09:35:56.636Z,58.49
2022-09-15T09:36:56.681Z,57.40
2022-09-15T09:37:56.636Z,58.88
2022-09-15T09:38:56.690Z,59.11
2022-09-15T09:39:56.662Z,60.09
2022-09-15T09:41:01.298Z,57.68
2022-09-15T09:41:57.587Z,57.99
2022-09-15T09:42:56.574Z,58.65
2022-09-15T09:43:56.574Z,58.82
2022-09-15T09:44:56.627Z,56.85
2022-09-15T09:45:56.641Z,56.24
2022-09-15T09:46:56.547Z,56.85
2022-09-15T09:48:01.350Z,59.17
2022-09-15T09:48:57.527Z,55.44
2022-09-15T09:49:56.528Z,60.44
2022-09-15T09:50:56.588Z,60.69
2022-09-15T09:51:56.516Z,59.54
2022-09-15T09:52:56.489Z,59.33
2022-09-15T09:53:56.486Z,65.83
2022-09-15T09:54:56.492Z,77.88
2022-09-15T09:55:56.582Z,79.12
2022-09-15T09:56:56.496Z,76.12
2022-09-15T09:57:56.456Z,73.95
2022-09-15T09:58:56.467Z,77.07
2022-09-15T09:59:56.446Z,61.22
2022-09-15T10:00:56.518Z,58.43
2022-09-15T10:01:56.473Z,60.38
2022-09-15T10:02:56.429Z,60.15
2022-09-15T10:03:56.407Z,62.21
2022-09-15T10:04:56.433Z,59.45
2022-09-15T10:05:56.376Z,61.28
2022-09-15T10:06:56.394Z,60.42
2022-09-15T10:07:56.440Z,56.88
2022-09-15T10:08:56.369Z,57.99
2022-09-15T10:09:56.350Z,59.36
2022-09-15T10:10:56.388Z,62.41
2022-09-15T10:11:56.350Z,63.34
2022-09-15T10:12:56.357Z,59.81
2022-09-15T10:13:56.347Z,59.46
2022-09-15T10:14:56.864Z,57.49
2022-09-15T10:15:56.328Z,60.17
2022-09-15T10:16:56.345Z,63.77
2022-09-15T10:17:56.340Z,58.95
2022-09-15T10:18:56.273Z,56.60
2022-09-15T10:19:56.298Z,61.67
2022-09-15T10:20:56.295Z,60.00
2022-09-15T10:21:56.271Z,61.22
2022-09-15T10:22:56.279Z,59.79
2022-09-15T10:23:56.252Z,60.77
2022-09-15T10:24:56.301Z,57.12
2022-09-15T10:25:59.700Z,56.79
2022-09-15T10:26:56.220Z,60.27
2022-09-15T10:27:56.201Z,63.38
2022-09-15T10:28:56.196Z,59.69
2022-09-15T10:29:56.183Z,61.42
2022-09-15T10:30:56.202Z,58.43
2022-09-15T10:31:56.295Z,62.37
2022-09-15T10:32:56.152Z,62.66
2022-09-15T10:33:56.146Z,59.74
2022-09-15T10:34:56.229Z,60.30
2022-09-15T10:35:56.229Z,60.10
2022-09-15T10:36:56.168Z,61.15
2022-09-15T10:37:56.347Z,59.48
2022-09-15T10:38:56.138Z,61.23
2022-09-15T10:39:56.146Z,66.56
2022-09-15T10:40:56.099Z,65.48
2022-09-15T10:41:56.089Z,62.09
2022-09-15T10:42:56.141Z,60.48
2022-09-15T10:43:56.075Z,62.67
2022-09-15T10:44:56.122Z,58.25
2022-09-15T10:45:56.124Z,61.83
2022-09-15T10:46:56.068Z,59.90
2022-09-15T10:47:56.025Z,68.57
2022-09-15T10:48:56.008Z,67.82
2022-09-15T10:49:56.133Z,65.88
2022-09-15T10:50:56.056Z,70.01
2022-09-15T10:51:55.998Z,67.06
2022-09-15T10:52:56.009Z,65.70
2022-09-15T10:53:57.588Z,64.88
2022-09-15T10:54:55.976Z,66.44
2022-09-15T10:55:56.025Z,65.69
2022-09-15T10:56:55.956Z,65.42
2022-09-15T10:57:55.974Z,65.17
2022-09-15T10:58:56.047Z,63.39
2022-09-15T11:00:03.459Z,58.75
2022-09-15T11:00:55.971Z,59.53
2022-09-15T11:01:56.174Z,58.05
2022-09-15T11:02:55.905Z,59.86
2022-09-15T11:03:55.888Z,59.91
2022-09-15T11:04:55.894Z,61.61
2022-09-15T11:05:55.873Z,60.76
2022-09-15T11:06:55.962Z,61.53
2022-09-15T11:07:55.867Z,62.64
2022-09-15T11:08:55.855Z,63.49
2022-09-15T11:09:55.839Z,61.64
2022-09-15T11:10:55.848Z,62.13
2022-09-15T11:11:55.839Z,61.49
2022-09-15T11:12:55.849Z,60.15
2022-09-15T11:13:55.810Z,60.70
2022-09-15T11:14:55.811Z,58.99
2022-09-15T11:15:55.813Z,61.16
2022-09-15T11:16:55.800Z,58.68
2022-09-15T11:17:55.828Z,61.51
2022-09-15T11:18:55.835Z,61.22
2022-09-15T11:19:55.756Z,61.51
2022-09-15T11:20:55.775Z,62.45
2022-09-15T11:21:55.743Z,58.20
2022-09-15T11:22:55.740Z,60.78
2022-09-15T11:23:55.732Z,62.25
2022-09-15T11:24:55.740Z,62.09
2022-09-15T11:25:55.739Z,59.60
2022-09-15T11:26:55.696Z,60.24
2022-09-15T11:27:55.699Z,58.75
2022-09-15T11:28:55.697Z,61.06
2022-09-15T11:29:59.517Z,61.36
2022-09-15T11:30:57.099Z,59.77
2022-09-15T11:31:55.784Z,62.26
2022-09-15T11:32:57.931Z,62.91
2022-09-15T11:33:58.044Z,62.56
2022-09-15T11:34:55.650Z,62.12
2022-09-15T11:35:55.622Z,61.52
2022-09-15T11:36:55.618Z,61.54
2022-09-15T11:37:55.604Z,62.94
2022-09-15T11:38:55.623Z,62.88
2022-09-15T11:39:55.678Z,59.18
2022-09-15T11:40:55.580Z,59.86
2022-09-15T11:41:55.575Z,59.83
2022-09-15T11:42:55.579Z,59.72
2022-09-15T11:43:55.555Z,61.81
2022-09-15T11:44:55.573Z,62.42
2022-09-15T11:45:55.948Z,60.98
2022-09-15T11:46:55.793Z,59.88
2022-09-15T11:47:55.676Z,61.88
2022-09-15T11:48:55.518Z,58.25
2022-09-15T11:49:55.505Z,60.83
2022-09-15T11:50:55.563Z,60.91
2022-09-15T11:51:55.487Z,59.14
2022-09-15T11:52:55.480Z,62.09
2022-09-15T11:53:55.473Z,61.96
2022-09-15T11:54:55.473Z,62.94
2022-09-15T11:55:55.490Z,63.82
2022-09-15T11:56:55.453Z,61.21
2022-09-15T11:57:55.447Z,63.44
2022-09-15T11:58:55.450Z,62.68
2022-09-15T11:59:55.443Z,63.68
2022-09-15T12:00:55.532Z,62.63
2022-09-15T12:01:55.536Z,62.13
2022-09-15T12:02:55.449Z,58.12
2022-09-15T12:03:55.427Z,60.50
2022-09-15T12:04:55.511Z,60.74
2022-09-15T12:05:55.383Z,57.26
2022-09-15T12:06:55.500Z,58.31
2022-09-15T12:07:55.446Z,60.09
2022-09-15T12:08:55.408Z,60.68
2022-09-15T12:09:55.540Z,59.54
2022-09-15T12:10:55.341Z,58.54
2022-09-15T12:11:55.336Z,59.14
2022-09-15T12:12:55.335Z,60.90
2022-09-15T12:13:55.397Z,60.71
2022-09-15T12:14:55.341Z,61.51
2022-09-15T12:15:55.357Z,60.59
2022-09-15T12:16:55.303Z,58.22
2022-09-15T12:17:55.285Z,60.97
2022-09-15T12:18:55.291Z,62.50
2022-09-15T12:19:55.292Z,59.95
2022-09-15T12:20:55.297Z,57.00
2022-09-15T12:21:55.269Z,60.03
2022-09-15T12:22:55.252Z,59.67
2022-09-15T12:23:55.247Z,59.04
2022-09-15T12:24:58.867Z,58.51
2022-09-15T12:25:56.222Z,59.83
2022-09-15T12:26:55.224Z,58.40
2022-09-15T12:27:55.196Z,59.05
2022-09-15T12:28:55.239Z,60.95
2022-09-15T12:29:55.181Z,59.84
2022-09-15T12:30:55.333Z,58.90
2022-09-15T12:31:55.325Z,63.03
2022-09-15T12:32:55.163Z,60.85
2022-09-15T12:33:55.154Z,62.81
2022-09-15T12:34:55.150Z,60.64
2022-09-15T12:35:55.147Z,61.71
2022-09-15T12:36:55.214Z,60.70
2022-09-15T12:37:55.116Z,57.90
2022-09-15T12:38:55.131Z,61.60
2022-09-15T12:39:55.159Z,60.28
2022-09-15T12:40:55.098Z,57.53
2022-09-15T12:41:55.105Z,56.19
2022-09-15T12:42:55.105Z,60.18
2022-09-15T12:43:55.115Z,61.68
2022-09-15T12:44:55.060Z,60.42
2022-09-15T12:45:55.085Z,59.19
2022-09-15T12:46:55.139Z,60.83
2022-09-15T12:47:55.076Z,57.99
2022-09-15T12:48:55.045Z,59.53
2022-09-15T12:49:55.019Z,56.96
2022-09-15T12:50:55.025Z,60.97
2022-09-15T12:51:55.013Z,60.17